Time;durP1;ratioP1;P1;durP2;ratioP2;P2;SDS_P1;SDS_P2;PMS_P1;PMS_P2;Temp;Humidity;BMP_temperature;BMP_pressure;BME280_temperature;BME280_humidity;BME280_pressure;Samples;Min_cycle;Max_cycle;Signal;HPM_P1;HPM_P2
2022/03/06 00:00:23;;;;;;;29.53;15.17;;;3.20;48.70;;;;;;5051987;28;20057;-85
2022/03/06 00:02:49;;;;;;;30.20;16.93;;;3.10;48.70;;;;;;5044827;28;20029;-85
2022/03/06 00:05:15;;;;;;;29.47;15.70;;;3.20;48.70;;;;;;5065082;28;20716;-85
2022/03/06 00:07:40;;;;;;;29.03;16.30;;;3.10;48.80;;;;;;5046209;28;20035;-85
2022/03/06 00:10:06;;;;;;;26.93;15.40;;;3.10;48.90;;;;;;5052442;28;20046;-84
2022/03/06 00:12:32;;;;;;;23.10;14.90;;;3.10;48.90;;;;;;5071445;28;20535;-85
2022/03/06 00:14:58;;;;;;;27.33;15.33;;;3.10;49.10;;;;;;5071224;28;20032;-85
2022/03/06 00:17:23;;;;;;;26.03;14.60;;;3.10;49.00;;;;;;5058544;28;20017;-85
2022/03/06 00:19:49;;;;;;;25.27;15.27;;;3.00;48.70;;;;;;5055271;28;20046;-85
2022/03/06 00:22:15;;;;;;;24.77;15.00;;;3.00;48.70;;;;;;5054814;28;20028;-85
2022/03/06 00:24:40;;;;;;;26.87;14.17;;;2.90;48.70;;;;;;5072763;28;20021;-85
2022/03/06 00:27:06;;;;;;;22.97;14.70;;;2.90;48.60;;;;;;5064435;28;20078;-85
2022/03/06 00:29:32;;;;;;;23.43;14.47;;;2.90;48.60;;;;;;5054977;28;20028;-84
2022/03/06 00:31:57;;;;;;;27.80;14.43;;;2.90;48.70;;;;;;5069061;28;20248;-85
2022/03/06 00:34:23;;;;;;;26.13;15.77;;;2.90;48.60;;;;;;5055659;28;20032;-85
2022/03/06 00:36:49;;;;;;;26.33;14.80;;;2.90;48.70;;;;;;5059113;28;20535;-85
2022/03/06 00:39:14;;;;;;;26.80;13.90;;;2.90;48.70;;;;;;5053515;28;20094;-85
2022/03/06 00:41:40;;;;;;;28.23;14.70;;;2.90;48.60;;;;;;5042108;28;20040;-85
2022/03/06 00:44:06;;;;;;;26.47;14.77;;;2.90;48.60;;;;;;5047790;28;20111;-85
2022/03/06 00:46:32;;;;;;;26.87;15.03;;;2.90;48.70;;;;;;5053516;28;20034;-85
2022/03/06 00:48:57;;;;;;;25.47;14.83;;;2.80;48.60;;;;;;5066629;28;20037;-85
2022/03/06 00:51:23;;;;;;;26.33;14.13;;;2.80;48.80;;;;;;5054069;28;20029;-84
2022/03/06 00:53:49;;;;;;;25.00;14.07;;;2.80;48.80;;;;;;5053859;28;20033;-84
2022/03/06 00:56:15;;;;;;;25.27;14.67;;;2.80;49.00;;;;;;5053949;28;20047;-85
2022/03/06 00:58:40;;;;;;;25.10;14.73;;;2.80;49.20;;;;;;5046840;28;20029;-85
2022/03/06 01:01:06;;;;;;;25.20;15.20;;;2.80;49.10;;;;;;5050801;28;20051;-84
2022/03/06 01:03:33;;;;;;;26.03;14.10;;;2.70;49.10;;;;;;5057123;28;20024;-85
2022/03/06 01:05:58;;;;;;;22.27;13.83;;;2.60;49.40;;;;;;5053059;28;20028;-85
2022/03/06 01:08:24;;;;;;;25.33;13.93;;;2.70;49.50;;;;;;5062020;28;20063;-85
2022/03/06 01:10:51;;;;;;;28.13;14.67;;;2.70;49.40;;;;;;5074533;28;20040;-85
2022/03/06 01:13:19;;;;;;;25.47;14.60;;;2.70;50.00;;;;;;5070524;28;20021;-85
2022/03/06 01:15:45;;;;;;;26.03;16.17;;;2.70;49.40;;;;;;5058006;28;20386;-84
2022/03/06 01:18:11;;;;;;;27.43;15.57;;;2.60;49.40;;;;;;5043948;28;20284;-85
2022/03/06 01:20:38;;;;;;;26.13;16.00;;;2.60;49.50;;;;;;5072295;28;20373;-85
2022/03/06 01:23:05;;;;;;;28.23;16.80;;;2.70;49.70;;;;;;5042303;28;20028;-85
2022/03/06 01:25:32;;;;;;;27.87;16.67;;;2.70;49.70;;;;;;5071496;28;20021;-84
2022/03/06 01:27:58;;;;;;;34.47;19.37;;;2.70;49.80;;;;;;5074080;28;20278;-84
2022/03/06 01:30:25;;;;;;;31.33;17.63;;;2.70;49.90;;;;;;5075103;28;20021;-85
2022/03/06 01:32:52;;;;;;;30.37;17.47;;;2.60;50.30;;;;;;5075507;28;20019;-85
2022/03/06 01:35:18;;;;;;;28.57;17.23;;;2.60;50.40;;;;;;5056594;28;20791;-84
2022/03/06 01:37:44;;;;;;;30.87;18.17;;;2.50;50.60;;;;;;5070997;28;20283;-84
2022/03/06 01:40:12;;;;;;;29.20;17.27;;;2.50;50.80;;;;;;5074697;28;20290;-85
2022/03/06 01:42:43;;;;;;;28.90;17.70;;;2.40;50.90;;;;;;5056743;28;20653;-84
2022/03/06 01:45:11;;;;;;;30.60;17.00;;;2.40;51.10;;;;;;5066807;28;20036;-85
2022/03/06 01:47:42;;;;;;;30.33;17.30;;;2.40;51.00;;;;;;5048163;28;20033;-84
2022/03/06 01:50:30;;;;;;;30.70;16.60;;;2.40;50.90;;;;;;5047367;28;20301;-84
2022/03/06 01:52:59;;;;;;;27.43;15.60;;;2.30;51.10;;;;;;5066622;28;20720;-84
2022/03/06 01:55:27;;;;;;;27.63;17.23;;;2.30;51.00;;;;;;5056364;28;20287;-85
2022/03/06 01:57:55;;;;;;;28.73;16.70;;;2.30;50.90;;;;;;5057029;28;20313;-84
2022/03/06 02:00:27;;;;;;;30.07;16.97;;;2.30;50.90;;;;;;5075063;28;20674;-85
2022/03/06 02:02:54;;;;;;;30.10;17.60;;;2.30;51.00;;;;;;5057234;28;20271;-85
2022/03/06 02:05:20;;;;;;;31.03;18.30;;;2.30;50.90;;;;;;5074238;28;20029;-85
2022/03/06 02:07:46;;;;;;;30.77;17.83;;;2.30;51.00;;;;;;5062638;28;20021;-84
2022/03/06 02:10:14;;;;;;;26.50;16.43;;;2.20;51.20;;;;;;5073030;28;20259;-84
2022/03/06 02:12:40;;;;;;;32.90;17.43;;;2.10;51.50;;;;;;5072952;28;20024;-85
2022/03/06 02:15:08;;;;;;;27.43;16.30;;;2.10;51.30;;;;;;5080133;28;20836;-85
2022/03/06 02:17:37;;;;;;;26.73;15.50;;;2.10;51.30;;;;;;5070849;28;20270;-85
2022/03/06 02:20:14;;;;;;;28.97;16.27;;;2.00;51.30;;;;;;5053514;28;20290;-85
2022/03/06 02:22:46;;;;;;;29.03;16.37;;;1.90;51.40;;;;;;5060591;28;20470;-85
2022/03/06 02:25:20;;;;;;;29.90;16.57;;;1.90;51.50;;;;;;5055382;28;20358;-84
2022/03/06 02:27:47;;;;;;;26.27;16.07;;;1.90;51.60;;;;;;5056421;28;20291;-85
2022/03/06 02:30:16;;;;;;;26.30;15.63;;;1.90;51.50;;;;;;5073108;28;20281;-85
2022/03/06 02:32:45;;;;;;;26.53;15.97;;;1.90;51.40;;;;;;5065862;28;20286;-85
2022/03/06 02:35:11;;;;;;;26.03;15.63;;;1.90;51.40;;;;;;5056637;28;20267;-84
2022/03/06 02:37:37;;;;;;;28.97;15.47;;;1.90;51.40;;;;;;5056242;28;20274;-85
2022/03/06 02:40:06;;;;;;;27.30;16.13;;;1.80;51.40;;;;;;5073335;28;20032;-85
2022/03/06 02:42:33;;;;;;;27.43;16.40;;;1.80;51.60;;;;;;5055720;28;20701;-85
2022/03/06 02:45:05;;;;;;;29.70;17.37;;;1.80;51.60;;;;;;5074229;28;20313;-85
2022/03/06 02:47:31;;;;;;;25.63;15.83;;;1.80;51.70;;;;;;5055935;28;20290;-85
2022/03/06 02:49:56;;;;;;;25.43;15.77;;;1.80;51.70;;;;;;5074037;28;20283;-85
2022/03/06 02:52:22;;;;;;;28.27;16.27;;;1.80;51.80;;;;;;5053493;28;20070;-85
2022/03/06 02:54:48;;;;;;;30.73;16.93;;;1.80;51.70;;;;;;5074182;28;20116;-85
2022/03/06 02:57:14;;;;;;;28.33;16.50;;;1.70;51.90;;;;;;5055677;28;20031;-85
2022/03/06 02:59:40;;;;;;;31.53;17.20;;;1.70;51.90;;;;;;5070906;28;20321;-85
2022/03/06 03:02:07;;;;;;;26.37;14.90;;;1.70;52.00;;;;;;5055934;28;20270;-85
2022/03/06 03:04:33;;;;;;;28.93;15.37;;;1.70;51.90;;;;;;5073523;28;20059;-85
2022/03/06 03:06:59;;;;;;;27.43;15.63;;;1.70;51.70;;;;;;5054857;28;20275;-85
2022/03/06 03:09:25;;;;;;;26.20;14.83;;;1.70;51.70;;;;;;5032338;28;20773;-85
2022/03/06 03:11:52;;;;;;;31.07;15.83;;;1.70;51.60;;;;;;5036235;28;20264;-85
2022/03/06 03:14:18;;;;;;;29.33;15.70;;;1.70;51.80;;;;;;5053389;28;22136;-85
2022/03/06 03:16:43;;;;;;;27.50;15.07;;;1.60;51.90;;;;;;5052101;28;20292;-85
2022/03/06 03:19:09;;;;;;;27.50;15.97;;;1.60;51.80;;;;;;5052444;28;20052;-85
2022/03/06 03:21:36;;;;;;;26.33;15.40;;;1.60;51.90;;;;;;5051267;28;20064;-85
2022/03/06 03:24:02;;;;;;;27.23;15.20;;;1.50;51.90;;;;;;5068711;28;20025;-85
2022/03/06 03:26:28;;;;;;;26.43;15.20;;;1.50;51.90;;;;;;5053053;28;20267;-84
2022/03/06 03:28:53;;;;;;;25.07;15.37;;;1.40;51.90;;;;;;5053317;28;20362;-85
2022/03/06 03:31:19;;;;;;;27.13;15.90;;;1.40;52.10;;;;;;5056138;28;20449;-85
2022/03/06 03:33:45;;;;;;;25.80;14.50;;;1.40;52.00;;;;;;5052205;28;20033;-85
2022/03/06 03:36:12;;;;;;;27.43;14.53;;;1.40;52.10;;;;;;5051840;28;20068;-85
2022/03/06 03:38:40;;;;;;;27.10;16.33;;;1.40;52.30;;;;;;5051803;28;20807;-84
2022/03/06 03:41:09;;;;;;;28.10;15.53;;;1.40;52.30;;;;;;5052814;28;20681;-85
2022/03/06 03:43:35;;;;;;;32.53;17.10;;;1.40;52.40;;;;;;5050932;28;20287;-85
2022/03/06 03:46:01;;;;;;;27.50;16.13;;;1.40;52.50;;;;;;5051453;28;20364;-85
2022/03/06 03:48:28;;;;;;;28.47;16.40;;;1.40;52.30;;;;;;5053139;28;20379;-85
2022/03/06 03:50:55;;;;;;;29.87;16.70;;;1.50;52.20;;;;;;5033403;28;20029;-85
2022/03/06 03:53:22;;;;;;;29.80;15.67;;;1.50;52.10;;;;;;5036750;28;20284;-85
2022/03/06 03:55:48;;;;;;;28.73;15.73;;;1.40;52.10;;;;;;5051722;28;20287;-85
2022/03/06 03:58:14;;;;;;;27.47;15.20;;;1.40;52.20;;;;;;5051677;28;20298;-85
2022/03/06 04:00:41;;;;;;;27.27;15.57;;;1.40;52.20;;;;;;5051952;28;20696;-85
2022/03/06 04:03:07;;;;;;;27.67;15.77;;;1.30;52.30;;;;;;5051474;28;20658;-85
2022/03/06 04:05:32;;;;;;;27.60;14.90;;;1.40;52.30;;;;;;5051690;28;20350;-85
2022/03/06 04:07:58;;;;;;;31.10;16.10;;;1.40;52.20;;;;;;5054067;28;20494;-85
2022/03/06 04:10:24;;;;;;;29.50;16.27;;;1.30;52.20;;;;;;5055181;28;20028;-84
2022/03/06 04:12:50;;;;;;;30.00;15.13;;;1.20;52.20;;;;;;5071618;28;20014;-84
2022/03/06 04:15:15;;;;;;;27.67;16.13;;;1.20;52.50;;;;;;5058937;28;20436;-84
2022/03/06 04:17:41;;;;;;;28.50;16.53;;;1.20;52.50;;;;;;5071280;28;20505;-85
2022/03/06 04:20:08;;;;;;;29.53;16.90;;;1.30;52.40;;;;;;5059911;28;20047;-84
2022/03/06 04:22:33;;;;;;;27.07;15.93;;;1.20;52.30;;;;;;5059728;28;20059;-84
2022/03/06 04:24:59;;;;;;;30.70;16.87;;;1.20;52.50;;;;;;5064852;28;20302;-84
2022/03/06 04:27:25;;;;;;;31.30;15.90;;;1.10;52.60;;;;;;5054530;28;20051;-85
2022/03/06 04:29:50;;;;;;;27.97;14.80;;;1.10;52.70;;;;;;5071653;28;20078;-84
2022/03/06 04:32:16;;;;;;;25.13;13.90;;;1.20;52.50;;;;;;5070911;28;20035;-84
2022/03/06 04:34:42;;;;;;;25.50;14.80;;;1.10;52.30;;;;;;5050247;28;20166;-84
2022/03/06 04:37:08;;;;;;;25.90;14.33;;;1.00;52.30;;;;;;5068749;28;20075;-84
2022/03/06 04:39:34;;;;;;;24.00;13.77;;;1.10;52.50;;;;;;5068884;28;20079;-84
2022/03/06 04:42:00;;;;;;;25.63;14.37;;;1.20;52.40;;;;;;5038904;28;20432;-84
2022/03/06 04:44:25;;;;;;;24.60;13.80;;;1.10;52.20;;;;;;5055926;28;20025;-84
2022/03/06 04:46:51;;;;;;;25.30;14.90;;;1.10;52.30;;;;;;5047430;28;20028;-84
2022/03/06 04:49:17;;;;;;;29.13;15.03;;;1.10;52.40;;;;;;5059452;28;20031;-85
2022/03/06 04:51:42;;;;;;;26.37;13.90;;;1.10;52.40;;;;;;5076116;28;20033;-85
2022/03/06 04:54:08;;;;;;;26.37;14.93;;;1.00;52.50;;;;;;5071103;28;20029;-85
2022/03/06 04:56:35;;;;;;;27.50;14.90;;;1.00;52.40;;;;;;5045353;28;20139;-84
2022/03/06 04:59:01;;;;;;;27.13;14.90;;;1.00;52.50;;;;;;5057478;28;20478;-85
2022/03/06 05:01:26;;;;;;;25.67;14.47;;;1.00;52.60;;;;;;5040867;28;20276;-84
2022/03/06 05:03:52;;;;;;;28.17;13.83;;;1.00;52.60;;;;;;5055608;28;20025;-85
2022/03/06 05:06:18;;;;;;;25.77;14.50;;;1.10;52.60;;;;;;5059250;28;20067;-85
2022/03/06 05:08:44;;;;;;;22.90;13.17;;;1.10;52.40;;;;;;5077593;28;20041;-85
2022/03/06 05:11:10;;;;;;;25.97;13.33;;;1.10;52.30;;;;;;5059397;28;20162;-85
2022/03/06 05:13:36;;;;;;;25.17;14.13;;;1.10;52.30;;;;;;5059096;28;20286;-85
2022/03/06 05:16:03;;;;;;;26.40;14.90;;;1.10;52.30;;;;;;5076632;28;20267;-85
2022/03/06 05:18:28;;;;;;;26.90;15.97;;;1.10;52.30;;;;;;5058357;28;20663;-85
2022/03/06 05:20:54;;;;;;;28.40;16.27;;;1.00;52.60;;;;;;5076332;28;20262;-85
2022/03/06 05:23:20;;;;;;;30.80;15.87;;;1.00;52.50;;;;;;5058080;28;20021;-84
2022/03/06 05:25:46;;;;;;;28.20;15.93;;;1.00;52.60;;;;;;5075678;28;20031;-85
2022/03/06 05:28:12;;;;;;;32.87;15.90;;;0.90;52.70;;;;;;5074017;28;20085;-85
2022/03/06 05:30:38;;;;;;;32.03;15.70;;;0.90;52.70;;;;;;5046572;28;20337;-84
2022/03/06 05:33:04;;;;;;;28.27;15.67;;;0.90;52.80;;;;;;5067569;28;20137;-84
2022/03/06 05:35:30;;;;;;;31.23;15.67;;;0.90;52.90;;;;;;5066807;28;20035;-84
2022/03/06 05:37:55;;;;;;;26.03;14.37;;;0.90;52.90;;;;;;5067208;28;20059;-84
2022/03/06 05:40:21;;;;;;;25.43;14.37;;;1.00;52.70;;;;;;5055351;28;20029;-84
2022/03/06 05:42:47;;;;;;;25.57;14.50;;;1.10;52.60;;;;;;5059483;28;20056;-84
2022/03/06 05:45:13;;;;;;;25.87;15.53;;;1.10;52.50;;;;;;5050804;28;20066;-84
2022/03/06 05:47:39;;;;;;;27.80;15.30;;;1.10;52.40;;;;;;5046305;28;20510;-84
2022/03/06 05:50:07;;;;;;;26.93;14.80;;;1.10;52.30;;;;;;5047878;28;20032;-84
2022/03/06 05:52:33;;;;;;;28.53;16.10;;;1.10;52.20;;;;;;5069906;28;20585;-84
2022/03/06 05:54:58;;;;;;;26.47;13.50;;;1.10;52.20;;;;;;5052007;28;20320;-84
2022/03/06 05:57:24;;;;;;;25.43;14.27;;;1.20;52.00;;;;;;5068871;28;20366;-84
2022/03/06 05:59:51;;;;;;;25.60;14.50;;;1.20;52.00;;;;;;5063863;28;20059;-84
2022/03/06 06:02:17;;;;;;;25.00;14.40;;;1.20;51.90;;;;;;5069477;28;20028;-84
2022/03/06 06:04:43;;;;;;;27.43;14.70;;;1.10;51.90;;;;;;5064612;28;20329;-84
2022/03/06 06:07:09;;;;;;;27.40;15.30;;;1.10;52.00;;;;;;5074067;28;20089;-84
2022/03/06 06:09:35;;;;;;;27.60;16.00;;;1.20;52.00;;;;;;5041384;28;20044;-84
2022/03/06 06:12:01;;;;;;;26.30;14.83;;;1.10;52.00;;;;;;5075171;28;20292;-84
2022/03/06 06:14:27;;;;;;;26.27;14.13;;;1.10;52.10;;;;;;5056844;28;20369;-84
2022/03/06 06:16:53;;;;;;;24.97;14.27;;;1.10;52.20;;;;;;5057062;28;20751;-84
2022/03/06 06:19:19;;;;;;;23.90;14.00;;;1.10;52.20;;;;;;5074269;28;20037;-84
2022/03/06 06:21:45;;;;;;;26.53;14.70;;;1.10;52.20;;;;;;5057088;28;20031;-84
2022/03/06 06:24:12;;;;;;;29.17;15.43;;;1.10;52.10;;;;;;5071982;28;20317;-84
2022/03/06 06:26:37;;;;;;;28.30;16.70;;;1.00;52.20;;;;;;5052449;28;20119;-83
2022/03/06 06:29:03;;;;;;;30.43;17.03;;;1.10;52.40;;;;;;5052339;28;20346;-83
2022/03/06 06:31:29;;;;;;;40.87;19.83;;;1.10;52.40;;;;;;5053879;28;20042;-83
2022/03/06 06:33:55;;;;;;;29.60;16.83;;;1.10;52.40;;;;;;5054627;28;20081;-84
2022/03/06 06:36:21;;;;;;;30.07;16.50;;;1.20;52.30;;;;;;5049763;28;20486;-83
2022/03/06 06:38:47;;;;;;;25.67;15.37;;;1.20;52.30;;;;;;5050925;28;20287;-84
2022/03/06 06:41:13;;;;;;;32.20;16.60;;;1.20;52.30;;;;;;5068924;28;20021;-84
2022/03/06 06:43:39;;;;;;;31.40;16.80;;;1.20;52.10;;;;;;5048056;28;20032;-84
2022/03/06 06:46:05;;;;;;;32.43;18.20;;;1.30;52.00;;;;;;5050861;28;20325;-84
2022/03/06 06:48:31;;;;;;;32.17;17.90;;;1.30;51.90;;;;;;5065321;28;20032;-84
2022/03/06 06:50:56;;;;;;;33.53;19.87;;;1.30;51.90;;;;;;5056384;28;20455;-84
2022/03/06 06:53:22;;;;;;;31.87;17.67;;;1.30;51.90;;;;;;5056337;28;20115;-85
2022/03/06 06:55:49;;;;;;;30.27;16.87;;;1.40;51.80;;;;;;5039389;28;20032;-85
2022/03/06 06:58:15;;;;;;;28.80;16.20;;;1.40;51.70;;;;;;5052886;28;20070;-85
2022/03/06 07:00:41;;;;;;;28.23;15.57;;;1.40;51.60;;;;;;5064844;28;20263;-84
2022/03/06 07:03:06;;;;;;;30.80;17.20;;;1.40;51.70;;;;;;5055232;28;20584;-85
2022/03/06 07:05:32;;;;;;;25.63;15.40;;;1.50;51.70;;;;;;5071407;28;20279;-85
2022/03/06 07:07:58;;;;;;;29.07;14.87;;;1.50;51.60;;;;;;5053337;28;20486;-85
2022/03/06 07:10:24;;;;;;;29.13;14.97;;;1.50;51.60;;;;;;5051663;28;20021;-84
2022/03/06 07:12:53;;;;;;;28.90;16.63;;;1.50;51.50;;;;;;5055743;28;20020;-85
2022/03/06 07:15:19;;;;;;;33.10;17.40;;;1.40;51.60;;;;;;5051244;28;20029;-84
2022/03/06 07:17:45;;;;;;;27.53;16.10;;;1.50;51.80;;;;;;5069145;28;20271;-85
2022/03/06 07:20:11;;;;;;;29.20;16.23;;;1.50;51.70;;;;;;5073622;28;20024;-85
2022/03/06 07:22:37;;;;;;;30.93;17.47;;;1.60;51.70;;;;;;5071814;28;20020;-85
2022/03/06 07:25:04;;;;;;;25.53;15.50;;;1.70;51.70;;;;;;5074930;28;20328;-85
2022/03/06 07:27:29;;;;;;;33.30;17.70;;;1.70;51.60;;;;;;5055780;28;20017;-85
2022/03/06 07:29:56;;;;;;;31.73;16.87;;;1.70;51.60;;;;;;5055198;28;20909;-85
2022/03/06 07:32:22;;;;;;;43.80;21.70;;;1.80;51.60;;;;;;5055593;28;20062;-84
2022/03/06 07:34:48;;;;;;;33.37;18.53;;;1.80;51.60;;;;;;5058229;28;20311;-85
2022/03/06 07:37:13;;;;;;;33.07;17.00;;;1.90;51.60;;;;;;5072233;28;20317;-85
2022/03/06 07:39:39;;;;;;;28.97;15.87;;;1.90;51.40;;;;;;5055440;28;20454;-85
2022/03/06 07:42:05;;;;;;;30.03;16.90;;;1.90;51.40;;;;;;5055015;28;20032;-85
2022/03/06 07:44:31;;;;;;;32.10;17.90;;;2.00;51.40;;;;;;5055300;28;20036;-85
2022/03/06 07:46:56;;;;;;;28.50;17.30;;;2.00;51.30;;;;;;5064758;28;20031;-85
2022/03/06 07:49:23;;;;;;;30.57;17.97;;;2.00;51.30;;;;;;5048177;28;20036;-85
2022/03/06 07:51:49;;;;;;;29.20;17.03;;;2.10;51.20;;;;;;5057130;28;20113;-85
2022/03/06 07:54:15;;;;;;;28.00;16.80;;;2.10;51.20;;;;;;5072250;28;20751;-85
2022/03/06 07:56:41;;;;;;;29.23;16.97;;;2.10;51.00;;;;;;5054661;28;20029;-84
2022/03/06 07:59:07;;;;;;;30.57;17.50;;;2.10;51.10;;;;;;5060556;28;20054;-85
2022/03/06 08:01:33;;;;;;;28.10;17.77;;;2.20;51.20;;;;;;5056741;28;20349;-85
2022/03/06 08:03:58;;;;;;;33.60;17.80;;;2.20;51.10;;;;;;5053278;28;20103;-86
2022/03/06 08:06:24;;;;;;;30.87;17.73;;;2.20;51.00;;;;;;5036849;28;20059;-85
2022/03/06 08:08:50;;;;;;;31.37;18.90;;;2.30;51.00;;;;;;5053872;28;20044;-85
2022/03/06 08:11:15;;;;;;;28.50;16.67;;;2.30;50.90;;;;;;5062289;28;20028;-85
2022/03/06 08:13:41;;;;;;;46.97;22.23;;;2.40;50.90;;;;;;5059148;28;20025;-85
2022/03/06 08:16:07;;;;;;;54.33;26.80;;;2.40;50.90;;;;;;5060943;28;20028;-85
2022/03/06 08:18:32;;;;;;;47.33;26.30;;;2.50;51.00;;;;;;5060642;28;20075;-85
2022/03/06 08:20:58;;;;;;;39.00;22.43;;;2.60;51.00;;;;;;5061577;28;20031;-85
2022/03/06 08:23:24;;;;;;;32.93;20.67;;;2.90;50.90;;;;;;5061175;28;20024;-85
2022/03/06 08:25:50;;;;;;;39.47;20.73;;;3.90;50.70;;;;;;5061741;28;20138;-85
2022/03/06 08:28:15;;;;;;;31.50;18.87;;;4.80;49.90;;;;;;5061869;28;20162;-85
2022/03/06 08:30:41;;;;;;;29.23;18.37;;;5.30;49.30;;;;;;5075122;28;20028;-85
2022/03/06 08:33:07;;;;;;;29.40;19.20;;;6.00;49.40;;;;;;5055154;28;20054;-86
2022/03/06 08:35:33;;;;;;;28.27;19.08;;;6.70;49.10;;;;;;5061971;28;20107;-85
2022/03/06 08:37:58;;;;;;;30.40;19.13;;;7.10;48.50;;;;;;5062182;28;20036;-86
2022/03/06 08:40:24;;;;;;;28.73;19.77;;;7.40;48.00;;;;;;5064673;28;20028;-85
2022/03/06 08:42:50;;;;;;;28.13;19.97;;;7.70;47.10;;;;;;5064763;28;20017;-86
2022/03/06 08:45:16;;;;;;;25.70;17.30;;;8.30;45.10;;;;;;5074056;28;20020;-86
2022/03/06 08:47:42;;;;;;;23.47;18.10;;;8.20;44.20;;;;;;5073736;28;20460;-85
2022/03/06 08:50:08;;;;;;;24.27;17.47;;;7.60;44.80;;;;;;5057680;28;20116;-86
2022/03/06 08:52:34;;;;;;;24.83;17.53;;;7.20;44.90;;;;;;5060577;28;20047;-85
2022/03/06 08:55:00;;;;;;;28.07;17.83;;;6.90;44.80;;;;;;5073204;28;20104;-85
2022/03/06 08:57:25;;;;;;;28.67;18.00;;;6.70;44.90;;;;;;5077095;28;20029;-86
2022/03/06 08:59:51;;;;;;;28.13;18.10;;;6.50;44.90;;;;;;5061373;28;20443;-86
2022/03/06 09:02:17;;;;;;;29.23;17.77;;;6.40;45.00;;;;;;5079538;28;20025;-85
2022/03/06 09:04:43;;;;;;;31.57;19.20;;;6.40;45.00;;;;;;5062008;28;20024;-86
2022/03/06 09:07:08;;;;;;;42.33;20.17;;;6.30;45.10;;;;;;5061426;28;20024;-85
2022/03/06 09:09:34;;;;;;;26.97;18.90;;;6.30;45.20;;;;;;5061150;28;20616;-86
2022/03/06 09:12:00;;;;;;;28.53;18.70;;;6.40;45.20;;;;;;5066630;28;20028;-86
2022/03/06 09:14:26;;;;;;;26.13;17.10;;;6.40;45.00;;;;;;5053140;28;20117;-86
2022/03/06 09:16:52;;;;;;;27.80;18.57;;;6.50;44.80;;;;;;5053390;28;20036;-85
2022/03/06 09:19:18;;;;;;;28.67;17.53;;;6.50;44.50;;;;;;5058831;28;20448;-85
2022/03/06 09:21:43;;;;;;;24.03;16.47;;;6.50;44.40;;;;;;5057678;28;20032;-85
2022/03/06 09:24:10;;;;;;;28.60;17.37;;;6.50;44.20;;;;;;5057697;28;20016;-86
2022/03/06 09:26:36;;;;;;;23.90;16.03;;;6.40;43.80;;;;;;5057281;28;20070;-86
2022/03/06 09:29:04;;;;;;;25.30;16.40;;;6.30;44.00;;;;;;5057528;28;20033;-85
2022/03/06 09:31:30;;;;;;;25.33;16.10;;;6.50;44.00;;;;;;5075629;28;20420;-86
2022/03/06 09:33:56;;;;;;;25.83;15.60;;;6.60;43.70;;;;;;5057757;28;20021;-86
2022/03/06 09:36:22;;;;;;;23.80;15.40;;;6.70;43.40;;;;;;5057935;28;20031;-86
2022/03/06 09:38:48;;;;;;;25.27;15.00;;;6.80;43.10;;;;;;5075615;28;20028;-86
2022/03/06 09:41:21;;;;;;;23.43;15.73;;;6.90;42.80;;;;;;5041088;28;20021;-86
2022/03/06 09:43:48;;;;;;;25.93;16.27;;;7.00;42.30;;;;;;5061920;28;20503;-86
2022/03/06 09:46:14;;;;;;;24.00;16.43;;;6.90;42.40;;;;;;5065337;28;20021;-86
2022/03/06 09:48:39;;;;;;;24.57;15.83;;;7.00;42.50;;;;;;5057571;28;20077;-86
2022/03/06 09:51:05;;;;;;;24.53;17.27;;;7.20;42.30;;;;;;5055269;28;20494;-85
2022/03/06 09:53:31;;;;;;;24.37;16.37;;;7.30;42.20;;;;;;5052429;28;20082;-86
2022/03/06 09:55:57;;;;;;;24.60;16.20;;;7.40;41.90;;;;;;5056242;28;20028;-85
2022/03/06 09:58:23;;;;;;;23.27;15.80;;;7.50;41.70;;;;;;5074009;28;20078;-85
2022/03/06 10:00:49;;;;;;;24.70;15.57;;;7.60;41.50;;;;;;5056229;28;20017;-85
2022/03/06 10:03:20;;;;;;;21.13;14.77;;;7.70;41.30;;;;;;5056439;28;20071;-85
2022/03/06 10:05:46;;;;;;;22.47;14.43;;;7.80;41.00;;;;;;5065120;28;20017;-87
2022/03/06 10:08:27;;;;;;;42.33;13.30;;;7.80;41.30;;;;;;5056316;28;20047;-85
2022/03/06 10:11:01;;;;;;;20.63;14.13;;;8.00;40.50;;;;;;5046519;28;20043;-86
2022/03/06 10:13:44;;;;;;;20.97;12.33;;;8.10;40.40;;;;;;5062227;28;20021;-85
2022/03/06 10:16:13;;;;;;;;;;;8.20;39.90;;;;;;5069140;28;20025;-85
2022/03/06 10:18:56;;;;;;;31.03;14.77;;;8.30;40.30;;;;;;5073965;28;20010;-85
2022/03/06 10:21:25;;;;;;;27.73;16.83;;;8.40;40.00;;;;;;5074005;28;20385;-86
2022/03/06 10:23:59;;;;;;;25.17;15.20;;;8.50;39.50;;;;;;5057019;28;20039;-86
2022/03/06 10:26:30;;;;;;;17.77;12.90;;;8.50;39.30;;;;;;5057043;28;20108;-85
2022/03/06 10:29:00;;;;;;;23.40;15.57;;;8.70;39.10;;;;;;5057142;28;20119;-86
2022/03/06 10:31:28;;;;;;;22.23;15.00;;;8.60;38.90;;;;;;5056880;28;20025;-85
2022/03/06 10:34:01;;;;;;;22.70;14.20;;;8.80;38.70;;;;;;5057081;28;20363;-85
2022/03/06 10:36:34;;;;;;;22.60;14.57;;;8.90;38.30;;;;;;5056667;28;20437;-85
2022/03/06 10:39:00;;;;;;;25.27;15.37;;;9.00;37.80;;;;;;5073569;28;20025;-84
2022/03/06 10:41:38;;;;;;;21.53;15.57;;;9.20;37.80;;;;;;5056491;28;20500;-85
2022/03/06 10:44:05;;;;;;;24.43;16.80;;;9.20;37.30;;;;;;5056978;28;20389;-85
2022/03/06 10:46:33;;;;;;;22.10;15.43;;;9.30;37.50;;;;;;5069012;28;20013;-85
2022/03/06 10:49:12;;;;;;;19.20;13.23;;;9.30;37.10;;;;;;5056902;28;20024;-85
2022/03/06 10:51:52;;;;;;;22.13;16.30;;;9.30;37.30;;;;;;5060293;28;20028;-85
2022/03/06 10:54:18;;;;;;;24.53;16.47;;;9.40;37.00;;;;;;5037025;28;20059;-85
2022/03/06 10:56:51;;;;;;;23.13;16.17;;;9.40;36.80;;;;;;5075170;28;20017;-84
2022/03/06 10:59:20;;;;;;;22.53;15.57;;;9.50;37.10;;;;;;5077370;28;20025;-85
2022/03/06 11:01:48;;;;;;;23.27;15.67;;;9.70;37.00;;;;;;5077914;28;20052;-84
2022/03/06 11:04:17;;;;;;;22.73;15.80;;;9.80;36.60;;;;;;5078109;28;20104;-84
2022/03/06 11:06:43;;;;;;;21.30;14.67;;;9.80;36.40;;;;;;5091862;28;20106;-83
2022/03/06 11:09:16;;;;;;;20.60;14.70;;;9.90;36.50;;;;;;5075126;28;20040;-83
2022/03/06 11:11:45;;;;;;;22.77;15.73;;;10.10;36.50;;;;;;5073978;28;20030;-85
2022/03/06 11:14:12;;;;;;;22.37;16.00;;;10.10;36.10;;;;;;5072978;28;20082;-84
2022/03/06 11:16:39;;;;;;;21.23;15.27;;;10.00;36.20;;;;;;5073616;28;20107;-84
2022/03/06 11:19:06;;;;;;;21.83;16.13;;;10.10;36.10;;;;;;5035954;28;20047;-85
2022/03/06 11:21:40;;;;;;;27.03;18.13;;;10.10;35.70;;;;;;5073252;28;20081;-84
2022/03/06 11:24:19;;;;;;;25.83;17.23;;;9.90;36.00;;;;;;5056151;28;20055;-83
2022/03/06 11:27:24;;;;;;;24.47;16.47;;;10.10;36.10;;;;;;5055595;28;20024;-83
2022/03/06 11:30:00;;;;;;;26.30;18.03;;;10.00;35.60;;;;;;5051388;28;20029;-83
2022/03/06 11:32:31;;;;;;;24.37;16.80;;;9.90;36.00;;;;;;5066343;28;20079;-84
2022/03/06 11:35:09;;;;;;;23.30;16.40;;;10.00;35.90;;;;;;5058667;28;20032;-84
2022/03/06 11:37:52;;;;;;;23.27;16.50;;;10.00;35.60;;;;;;5055369;28;20119;-84
2022/03/06 11:40:37;;;;;;;22.92;16.05;;;10.00;35.70;;;;;;5063135;28;20041;-83
2022/03/06 11:43:04;;;;;;;22.50;16.03;;;10.10;35.80;;;;;;5069934;28;20503;-84
2022/03/06 11:45:42;;;;;;;20.53;15.13;;;10.20;35.80;;;;;;5055213;28;20103;-84
2022/03/06 11:48:08;;;;;;;22.33;15.20;;;10.10;35.40;;;;;;5073435;28;20028;-85
2022/03/06 11:50:34;;;;;;;21.23;15.40;;;10.00;35.60;;;;;;5073284;28;20016;-84
2022/03/06 11:53:18;;;;;;;24.73;16.07;;;9.90;35.70;;;;;;5050001;28;20474;-84
2022/03/06 11:55:43;;;;;;;21.60;14.10;;;9.90;35.80;;;;;;5055078;28;20025;-84
2022/03/06 11:58:09;;;;;;;22.13;14.67;;;10.10;35.90;;;;;;5061165;28;20031;-84
2022/03/06 12:00:37;;;;;;;23.63;15.00;;;10.20;35.80;;;;;;5053560;28;20112;-84
2022/03/06 12:03:03;;;;;;;23.07;14.47;;;10.40;35.40;;;;;;5051546;28;20584;-84
2022/03/06 12:05:53;;;;;;;27.73;15.30;;;10.50;35.20;;;;;;5064093;28;20107;-84
2022/03/06 12:08:23;;;;;;;22.67;15.17;;;10.40;35.00;;;;;;5055131;28;20036;-83
2022/03/06 12:10:49;;;;;;;20.97;15.20;;;10.30;35.20;;;;;;5054876;28;20064;-84
2022/03/06 12:13:18;;;;;;;19.70;15.37;;;10.40;35.00;;;;;;5055396;28;20021;-84
2022/03/06 12:16:01;;;;;;;21.17;13.90;;;10.20;35.00;;;;;;5055137;28;20466;-84
2022/03/06 12:18:27;;;;;;;23.03;15.70;;;10.20;35.10;;;;;;5049493;28;20385;-84
2022/03/06 12:20:53;;;;;;;20.97;15.20;;;10.30;35.00;;;;;;5049929;28;20107;-83
2022/03/06 12:23:24;;;;;;;27.57;17.33;;;10.40;35.10;;;;;;5054827;28;20037;-84
2022/03/06 12:25:53;;;;;;;22.07;14.97;;;10.40;35.00;;;;;;5072532;28;20025;-84
2022/03/06 12:28:20;;;;;;;24.10;16.83;;;10.50;35.10;;;;;;5055322;28;20107;-84
2022/03/06 12:30:47;;;;;;;22.93;15.63;;;10.50;35.10;;;;;;5051584;28;20052;-84
2022/03/06 12:33:31;;;;;;;24.93;16.30;;;10.50;35.20;;;;;;5041385;28;20047;-84
2022/03/06 12:36:26;;;;;;;20.47;14.43;;;10.50;35.30;;;;;;5055149;28;20017;-84